createdAt,value
2022-11-20T00:01:14.329Z,56.04
2022-11-20T00:04:17.000Z,55.97
2022-11-20T00:07:19.571Z,55.92
2022-11-20T00:10:22.700Z,55.84
2022-11-20T00:13:24.791Z,55.75
2022-11-20T00:16:29.692Z,55.90
2022-11-20T00:19:32.439Z,55.91
2022-11-20T00:22:35.001Z,55.84
2022-11-20T00:25:37.126Z,55.70
2022-11-20T00:28:39.943Z,55.72
2022-11-20T00:31:42.168Z,55.65
2022-11-20T00:34:44.848Z,55.63
2022-11-20T00:37:47.380Z,55.72
2022-11-20T00:40:56.527Z,55.58
2022-11-20T00:43:58.591Z,55.52
2022-11-20T00:47:00.988Z,55.60
2022-11-20T00:50:03.460Z,55.44
2022-11-20T00:53:06.169Z,55.46
2022-11-20T00:56:12.301Z,55.38
2022-11-20T00:59:14.813Z,55.61
2022-11-20T01:02:17.801Z,55.84
2022-11-20T01:05:20.340Z,55.95
2022-11-20T01:08:22.645Z,56.07
2022-11-20T01:11:30.699Z,56.11
2022-11-20T01:14:32.723Z,56.11
2022-11-20T01:17:35.498Z,56.08
2022-11-20T01:20:38.100Z,56.12
2022-11-20T01:23:43.168Z,56.16
2022-11-20T01:26:48.295Z,56.17
2022-11-20T01:29:50.625Z,56.21
2022-11-20T01:32:52.710Z,56.12
2022-11-20T01:36:05.699Z,56.13
2022-11-20T01:39:16.582Z,56.12
2022-11-20T01:42:37.948Z,56.22
2022-11-20T01:45:51.683Z,56.32
2022-11-20T01:49:03.473Z,56.35
2022-11-20T01:52:20.228Z,56.43
2022-11-20T01:55:26.849Z,56.41
2022-11-20T01:58:33.414Z,56.52
2022-11-20T02:01:36.206Z,56.59
2022-11-20T02:04:38.503Z,56.59
2022-11-20T02:07:42.382Z,56.69
2022-11-20T02:10:44.808Z,56.68
2022-11-20T02:13:48.063Z,56.82
2022-11-20T02:16:51.887Z,56.85
2022-11-20T02:19:55.321Z,56.85
2022-11-20T02:23:06.345Z,56.91
2022-11-20T02:26:13.825Z,56.94
2022-11-20T02:29:20.534Z,57.04
2022-11-20T02:32:29.859Z,57.07
2022-11-20T02:35:32.507Z,57.12
2022-11-20T02:38:36.061Z,57.10
2022-11-20T02:41:39.549Z,57.12
2022-11-20T02:44:42.428Z,57.20
2022-11-20T02:47:44.768Z,57.28
2022-11-20T02:50:48.950Z,57.25
2022-11-20T02:53:51.130Z,57.30
2022-11-20T02:56:53.574Z,57.37
2022-11-20T02:59:55.720Z,57.44
2022-11-20T03:02:58.775Z,57.56
2022-11-20T03:06:01.269Z,57.60
2022-11-20T03:09:03.888Z,57.62
2022-11-20T03:12:06.532Z,57.73
2022-11-20T03:15:10.101Z,57.72
2022-11-20T03:18:12.244Z,57.80
2022-11-20T03:21:16.400Z,57.86
2022-11-20T03:24:18.601Z,57.93
2022-11-20T03:27:21.266Z,57.93
2022-11-20T03:30:29.260Z,57.89
2022-11-20T03:33:33.224Z,57.92
2022-11-20T03:36:35.475Z,57.99
2022-11-20T03:39:38.309Z,58.06
2022-11-20T03:42:46.263Z,58.05
2022-11-20T03:45:49.048Z,58.10
2022-11-20T03:48:52.322Z,58.23
2022-11-20T03:51:55.581Z,58.14
2022-11-20T03:54:58.159Z,58.23
2022-11-20T03:58:01.258Z,58.33
2022-11-20T04:01:16.084Z,58.29
2022-11-20T04:04:19.118Z,58.32
2022-11-20T04:07:21.319Z,58.38
2022-11-20T04:10:24.417Z,58.45
2022-11-20T04:13:26.381Z,58.48
2022-11-20T04:16:34.873Z,58.54
2022-11-20T04:19:37.025Z,58.56
2022-11-20T04:22:39.629Z,58.53
2022-11-20T04:25:41.629Z,58.48
2022-11-20T04:28:44.638Z,58.65
2022-11-20T04:31:46.601Z,58.62
2022-11-20T04:34:48.863Z,58.60
2022-11-20T04:37:53.593Z,58.57
2022-11-20T04:41:04.948Z,58.62
2022-11-20T04:44:07.431Z,58.60
2022-11-20T04:47:10.037Z,58.71
2022-11-20T04:50:12.774Z,58.78
2022-11-20T04:53:15.662Z,58.65
2022-11-20T04:56:18.109Z,58.59
2022-11-20T04:59:21.082Z,58.64
2022-11-20T05:02:24.422Z,58.77
2022-11-20T05:05:27.150Z,58.67
2022-11-20T05:08:30.183Z,58.67
2022-11-20T05:11:33.319Z,58.80
2022-11-20T05:14:36.011Z,58.80
2022-11-20T05:17:38.413Z,58.92
2022-11-20T05:20:40.665Z,58.91
2022-11-20T05:23:43.988Z,58.97
2022-11-20T05:26:46.281Z,58.98
2022-11-20T05:29:48.668Z,58.87
2022-11-20T05:32:50.851Z,58.92
2022-11-20T05:35:53.674Z,58.99
2022-11-20T05:39:01.343Z,59.03
2022-11-20T05:42:23.072Z,59.25
2022-11-20T05:45:25.105Z,59.16
2022-11-20T05:48:28.046Z,59.15
2022-11-20T05:51:30.071Z,59.11
2022-11-20T05:54:32.752Z,59.24
2022-11-20T05:57:35.111Z,59.23
2022-11-20T06:00:37.854Z,59.13
2022-11-20T06:03:41.472Z,59.13
2022-11-20T06:06:43.846Z,59.21
2022-11-20T06:09:46.032Z,59.14
2022-11-20T06:12:48.445Z,59.15
2022-11-20T06:15:54.372Z,59.35
2022-11-20T06:18:57.408Z,59.26
2022-11-20T06:21:59.824Z,59.28
2022-11-20T06:25:02.459Z,59.31
2022-11-20T06:28:04.591Z,59.35
2022-11-20T06:31:08.188Z,59.27
2022-11-20T06:34:10.658Z,59.31
2022-11-20T06:37:13.534Z,59.33
2022-11-20T06:40:15.721Z,59.68
2022-11-20T06:43:18.126Z,60.30
2022-11-20T06:46:21.076Z,60.44
2022-11-20T06:49:23.978Z,60.25
2022-11-20T06:52:26.372Z,60.35
2022-11-20T06:55:29.145Z,60.39
2022-11-20T06:58:33.142Z,60.20
2022-11-20T07:01:36.287Z,60.13
2022-11-20T07:04:38.443Z,60.27
2022-11-20T07:07:41.634Z,60.33
2022-11-20T07:10:44.330Z,60.54
2022-11-20T07:13:47.798Z,60.41
2022-11-20T07:16:50.454Z,60.29
2022-11-20T07:19:52.849Z,59.93
2022-11-20T07:22:58.570Z,59.93
2022-11-20T07:26:13.619Z,59.49
2022-11-20T07:29:16.666Z,59.37
2022-11-20T07:32:19.573Z,59.29
2022-11-20T07:35:21.866Z,59.37
2022-11-20T07:38:24.396Z,59.54
2022-11-20T07:41:27.572Z,59.55
2022-11-20T07:44:29.894Z,59.73
2022-11-20T07:47:37.513Z,60.13
2022-11-20T07:50:40.812Z,60.36
2022-11-20T07:53:43.034Z,60.49
2022-11-20T07:56:46.408Z,60.60
2022-11-20T07:59:48.730Z,60.48
2022-11-20T08:02:51.561Z,60.47
2022-11-20T08:05:53.705Z,60.54
2022-11-20T08:08:56.598Z,60.62
2022-11-20T08:12:17.057Z,60.28
2022-11-20T08:15:20.219Z,60.37
2022-11-20T08:18:31.717Z,60.15
2022-11-20T08:21:38.385Z,60.02
2022-11-20T08:24:41.512Z,59.89
2022-11-20T08:27:44.225Z,60.02
2022-11-20T08:30:47.482Z,60.67
2022-11-20T08:33:50.825Z,60.97
2022-11-20T08:36:53.285Z,60.90
2022-11-20T08:39:58.177Z,60.80
2022-11-20T08:43:00.387Z,60.68
2022-11-20T08:46:03.129Z,60.52
2022-11-20T08:49:07.202Z,60.36
2022-11-20T08:52:11.255Z,60.01
2022-11-20T08:55:13.614Z,59.96
2022-11-20T08:58:16.284Z,60.10
2022-11-20T09:01:18.672Z,60.13
2022-11-20T09:04:21.339Z,60.18
2022-11-20T09:07:23.754Z,60.19
2022-11-20T09:10:27.372Z,60.01
2022-11-20T09:13:31.011Z,59.91
2022-11-20T09:16:34.297Z,59.84
2022-11-20T09:19:36.626Z,60.01
2022-11-20T09:22:41.755Z,60.33
2022-11-20T09:25:44.426Z,60.40
2022-11-20T09:28:47.297Z,60.38
2022-11-20T09:31:49.990Z,60.39
2022-11-20T09:34:52.703Z,60.62
2022-11-20T09:37:56.167Z,60.26
2022-11-20T09:41:08.383Z,60.40
2022-11-20T09:44:47.069Z,60.19
2022-11-20T09:47:56.036Z,59.89
2022-11-20T09:51:35.547Z,60.22
2022-11-20T09:54:41.953Z,60.30
2022-11-20T09:57:48.220Z,60.29
2022-11-20T10:00:52.663Z,60.32
2022-11-20T10:04:11.917Z,60.24
2022-11-20T10:07:40.116Z,60.31
2022-11-20T10:10:52.414Z,60.31
2022-11-20T10:14:27.081Z,60.05
2022-11-20T10:17:59.998Z,59.69
2022-11-20T10:21:15.263Z,59.61
2022-11-20T10:24:48.909Z,59.84
2022-11-20T10:28:07.679Z,59.84
2022-11-20T10:31:16.264Z,59.71
2022-11-20T10:34:26.908Z,59.83
2022-11-20T10:37:32.242Z,59.79
2022-11-20T10:40:47.935Z,59.76
2022-11-20T10:44:05.086Z,59.93
2022-11-20T10:47:14.252Z,59.97
2022-11-20T10:50:22.421Z,60.00
2022-11-20T10:53:54.652Z,60.06
2022-11-20T10:57:07.823Z,60.03
2022-11-20T11:00:12.396Z,59.91
2022-11-20T11:03:32.479Z,59.56
2022-11-20T11:06:45.208Z,59.84
2022-11-20T11:09:58.153Z,59.98
2022-11-20T11:13:01.014Z,59.78
2022-11-20T11:16:04.977Z,59.92
2022-11-20T11:19:15.049Z,59.69
2022-11-20T11:22:19.404Z,59.67
2022-11-20T11:25:31.632Z,59.57
2022-11-20T11:28:34.543Z,59.64
2022-11-20T11:31:37.238Z,59.61
2022-11-20T11:34:39.474Z,59.70
2022-11-20T11:37:41.822Z,59.65
2022-11-20T11:40:46.192Z,59.85
2022-11-20T11:44:36.166Z,59.75
2022-11-20T11:47:45.369Z,59.88
2022-11-20T11:50:53.332Z,59.93
2022-11-20T11:53:55.613Z,59.89
2022-11-20T11:57:11.369Z,60.22
2022-11-20T12:00:18.050Z,59.97
2022-11-20T12:03:28.476Z,60.05
2022-11-20T12:06:32.673Z,59.98
2022-11-20T12:09:42.673Z,59.99
2022-11-20T12:12:50.670Z,60.00
2022-11-20T12:15:54.801Z,59.84
2022-11-20T12:18:56.995Z,59.81
2022-11-20T12:22:18.454Z,59.55
2022-11-20T12:25:36.793Z,59.40
2022-11-20T12:29:14.143Z,59.35
2022-11-20T12:32:16.255Z,59.16
2022-11-20T12:35:44.447Z,59.39
2022-11-20T12:38:53.547Z,59.30
2022-11-20T12:46:20.048Z,59.14
2022-11-20T12:53:25.214Z,58.51
2022-11-20T12:56:30.723Z,58.31
2022-11-20T12:59:52.353Z,58.51
2022-11-20T13:03:10.361Z,58.32
2022-11-20T13:06:33.056Z,57.97
2022-11-20T13:09:46.863Z,57.77
2022-11-20T13:13:00.415Z,57.82
2022-11-20T13:16:14.241Z,57.72
2022-11-20T13:19:18.268Z,57.37
2022-11-20T13:22:44.073Z,57.25
2022-11-20T13:25:46.350Z,56.86
2022-11-20T13:29:00.768Z,56.55
2022-11-20T13:32:19.582Z,56.32
2022-11-20T13:35:29.458Z,56.06
2022-11-20T13:38:52.767Z,55.95
2022-11-20T13:42:01.212Z,56.00
2022-11-20T13:45:10.297Z,55.84
2022-11-20T13:48:23.717Z,55.61
2022-11-20T13:51:28.740Z,55.42
2022-11-20T13:55:06.816Z,55.46
2022-11-20T13:58:33.718Z,55.60
2022-11-20T14:01:36.398Z,55.78
2022-11-20T14:04:44.937Z,56.05
2022-11-20T14:07:49.155Z,56.13
2022-11-20T14:10:51.416Z,56.12
2022-11-20T14:14:42.439Z,56.12
2022-11-20T14:17:44.548Z,56.08
2022-11-20T14:20:47.903Z,56.15
2022-11-20T14:23:50.075Z,56.08
2022-11-20T14:26:53.867Z,56.19
2022-11-20T14:29:56.535Z,56.24
2022-11-20T14:33:04.669Z,56.63
2022-11-20T14:36:07.044Z,56.72
2022-11-20T14:39:13.482Z,56.71
2022-11-20T14:42:34.907Z,56.76
2022-11-20T14:45:39.360Z,56.93
2022-11-20T14:48:48.915Z,57.07
2022-11-20T14:52:02.640Z,57.17
2022-11-20T14:55:15.429Z,57.26
2022-11-20T14:58:45.497Z,57.43
2022-11-20T15:06:14.068Z,58.03
2022-11-20T15:09:19.416Z,57.86
2022-11-20T15:12:51.204Z,57.36
2022-11-20T15:16:05.385Z,57.11
2022-11-20T15:19:19.051Z,57.07
2022-11-20T15:22:22.231Z,56.93
2022-11-20T15:25:25.971Z,56.70
2022-11-20T15:28:32.970Z,56.50
2022-11-20T15:31:36.243Z,56.56
2022-11-20T15:34:38.703Z,56.78
2022-11-20T15:37:41.459Z,56.90
2022-11-20T15:40:44.283Z,56.94
2022-11-20T15:43:46.845Z,56.94
2022-11-20T15:46:49.931Z,56.88
2022-11-20T15:49:52.148Z,56.60
2022-11-20T15:52:54.897Z,56.61
2022-11-20T15:55:56.920Z,56.48
2022-11-20T15:59:00.066Z,56.44
2022-11-20T16:02:02.280Z,56.35
2022-11-20T16:05:05.459Z,56.39
2022-11-20T16:08:11.672Z,56.16
2022-11-20T16:11:17.688Z,56.16
2022-11-20T16:14:38.305Z,56.06
2022-11-20T16:17:46.182Z,56.15
2022-11-20T16:20:53.365Z,56.09
2022-11-20T16:23:56.517Z,55.94
2022-11-20T16:26:58.561Z,56.04
2022-11-20T16:30:01.081Z,56.25
2022-11-20T16:33:04.722Z,56.00
2022-11-20T16:36:13.874Z,55.85
2022-11-20T16:39:21.911Z,55.80
2022-11-20T16:42:26.439Z,55.62
2022-11-20T16:45:33.602Z,55.61
2022-11-20T16:48:36.434Z,55.76
2022-11-20T16:51:38.857Z,55.76
2022-11-20T16:54:41.163Z,55.50
2022-11-20T16:57:43.294Z,55.73
2022-11-20T17:00:51.382Z,55.82
2022-11-20T17:03:59.267Z,55.65
2022-11-20T17:07:07.885Z,55.50
2022-11-20T17:10:10.404Z,55.36
2022-11-20T17:13:12.667Z,55.46
2022-11-20T17:16:17.475Z,55.27
2022-11-20T17:19:21.596Z,55.18
2022-11-20T17:22:25.085Z,55.27
2022-11-20T17:25:28.219Z,55.28
2022-11-20T17:28:32.417Z,55.51
2022-11-20T17:31:35.784Z,55.34
2022-11-20T17:34:37.878Z,55.21
2022-11-20T17:37:40.357Z,55.22
2022-11-20T17:40:42.438Z,55.24
2022-11-20T17:43:45.839Z,55.12
2022-11-20T17:46:49.404Z,54.88
2022-11-20T17:49:52.941Z,54.49
2022-11-20T17:52:55.022Z,55.33
2022-11-20T17:56:17.469Z,54.97
2022-11-20T17:59:19.816Z,55.49
2022-11-20T18:02:22.828Z,55.51
2022-11-20T18:05:27.183Z,55.14
2022-11-20T18:08:29.548Z,55.07
2022-11-20T18:11:34.790Z,55.13
2022-11-20T18:14:37.424Z,55.24
2022-11-20T18:17:40.123Z,55.38
2022-11-20T18:20:43.677Z,55.52
2022-11-20T18:23:45.573Z,55.62
2022-11-20T18:26:48.033Z,55.68
2022-11-20T18:29:52.341Z,55.81
2022-11-20T18:32:55.920Z,55.89
2022-11-20T18:35:58.205Z,56.01
2022-11-20T18:39:01.783Z,56.11
2022-11-20T18:42:22.424Z,56.15
2022-11-20T18:45:39.943Z,56.22
2022-11-20T18:48:49.470Z,56.30
2022-11-20T18:51:51.681Z,56.35
2022-11-20T18:54:54.745Z,56.43
2022-11-20T18:58:04.587Z,56.60
2022-11-20T19:01:08.852Z,56.76
2022-11-20T19:04:13.272Z,56.89
2022-11-20T19:07:15.975Z,56.98
2022-11-20T19:10:20.452Z,57.05
2022-11-20T19:13:22.521Z,57.15
2022-11-20T19:16:25.198Z,57.18
2022-11-20T19:19:29.420Z,57.25
2022-11-20T19:22:32.034Z,57.26
2022-11-20T19:25:37.892Z,57.35
2022-11-20T19:28:40.966Z,57.41
2022-11-20T19:31:43.885Z,57.44
2022-11-20T19:34:46.104Z,57.50
2022-11-20T19:37:49.381Z,57.57
2022-11-20T19:40:52.379Z,57.64
2022-11-20T19:43:56.937Z,57.62
2022-11-20T19:47:00.063Z,57.76
2022-11-20T19:50:04.108Z,58.40
2022-11-20T19:53:08.120Z,58.23
2022-11-20T19:56:11.287Z,58.26
2022-11-20T19:59:14.407Z,58.03
2022-11-20T20:02:17.198Z,57.98
2022-11-20T20:05:20.578Z,57.89
2022-11-20T20:08:22.833Z,57.94
2022-11-20T20:11:29.501Z,57.91
2022-11-20T20:14:32.286Z,57.94
2022-11-20T20:17:34.787Z,58.00
2022-11-20T20:20:36.747Z,57.99
2022-11-20T20:23:40.302Z,57.90
2022-11-20T20:26:42.555Z,57.76
2022-11-20T20:29:46.024Z,57.65
2022-11-20T20:32:53.263Z,57.50
2022-11-20T20:35:59.425Z,57.56
2022-11-20T20:39:03.061Z,57.36
2022-11-20T20:42:05.657Z,57.47
2022-11-20T20:45:09.020Z,57.43
2022-11-20T20:48:11.794Z,57.18
2022-11-20T20:51:14.830Z,56.93
2022-11-20T20:54:17.414Z,57.03
2022-11-20T20:57:19.962Z,57.00
2022-11-20T21:00:22.666Z,56.96
2022-11-20T21:03:32.970Z,56.93
2022-11-20T21:06:37.952Z,56.88
2022-11-20T21:09:40.489Z,56.88
2022-11-20T21:12:46.870Z,56.92
2022-11-20T21:15:50.866Z,56.51
2022-11-20T21:18:53.857Z,57.00
2022-11-20T21:22:05.412Z,57.45
2022-11-20T21:25:08.378Z,57.43
2022-11-20T21:28:15.484Z,57.54
2022-11-20T21:31:26.924Z,57.54
2022-11-20T21:34:29.534Z,57.84
2022-11-20T21:37:33.387Z,57.89
2022-11-20T21:40:38.218Z,57.34
2022-11-20T21:43:41.131Z,55.86
2022-11-20T21:46:45.357Z,57.60
2022-11-20T21:49:47.695Z,57.50
2022-11-20T21:52:49.675Z,58.16
2022-11-20T21:55:56.603Z,57.77
2022-11-20T21:58:59.105Z,58.18
2022-11-20T22:02:02.351Z,58.10
2022-11-20T22:05:04.659Z,57.72
2022-11-20T22:08:07.411Z,57.51
2022-11-20T22:11:13.118Z,57.23
2022-11-20T22:14:23.824Z,57.22
2022-11-20T22:17:45.526Z,57.21
2022-11-20T22:20:50.360Z,57.08
2022-11-20T22:23:53.237Z,57.06
2022-11-20T22:26:56.260Z,57.07
2022-11-20T22:29:58.400Z,57.21
2022-11-20T22:33:01.911Z,57.40
2022-11-20T22:36:12.696Z,57.22
2022-11-20T22:39:15.106Z,57.66
2022-11-20T22:42:18.044Z,57.59
2022-11-20T22:45:22.979Z,57.39
2022-11-20T22:48:27.144Z,57.63
2022-11-20T22:51:33.131Z,57.82
2022-11-20T22:54:36.728Z,57.39
2022-11-20T22:57:39.452Z,57.82
2022-11-20T23:00:41.454Z,56.32
2022-11-20T23:03:46.690Z,58.47
2022-11-20T23:06:48.892Z,58.03
2022-11-20T23:09:51.344Z,57.57
2022-11-20T23:12:54.581Z,57.39
2022-11-20T23:16:04.628Z,57.14
2022-11-20T23:19:08.978Z,57.07
2022-11-20T23:22:12.162Z,56.88
2022-11-20T23:25:14.657Z,56.73
2022-11-20T23:28:17.242Z,56.75
2022-11-20T23:31:21.418Z,56.71
2022-11-20T23:34:26.235Z,56.55
2022-11-20T23:37:28.612Z,56.48
2022-11-20T23:40:31.190Z,56.44
2022-11-20T23:43:34.211Z,56.29
2022-11-20T23:46:36.746Z,56.25
2022-11-20T23:49:38.798Z,56.28
2022-11-20T23:52:41.422Z,56.18
2022-11-20T23:55:51.948Z,56.09
2022-11-20T23:58:54.579Z,56.19
